Terminal Aerodrome Forecast
Issued by NWS Cleveland, OH

Home | Current Version | Previous Version | Text Only | Print | Product List | Glossary On
Versions: 1 2 3 4 5 6 7 8 9 10 11 12 13 14 15 16 17 18 19
000
FTUS41 KCLE 230500
TAFCAK
TAF
KCAK 230526Z 2306/2406 33010G18KT P6SM SCT028 OVC035
      TEMPO 2306/2310 OVC028
     FM231700 33012G20KT P6SM SCT045
     FM232300 36006KT P6SM SCT250
     FM240400 VRB03KT P6SM SCT100 BKN250=

USA.gov is the U.S. government's official web portal to all federal, state and local government web resources and services.